sensor_id;sensor_type;location;lat;lon;timestamp;P1;durP1;ratioP1;P2;durP2;ratioP2
33491;SDS011;20010;51.488;7.232;2022-12-18T00:01:05;11.73;;;8.80;;
33491;SDS011;20010;51.488;7.232;2022-12-18T00:03:40;10.80;;;9.70;;
33491;SDS011;20010;51.488;7.232;2022-12-18T00:06:08;10.82;;;9.07;;
33491;SDS011;20010;51.488;7.232;2022-12-18T00:08:35;10.30;;;9.40;;
33491;SDS011;20010;51.488;7.232;2022-12-18T00:11:05;13.88;;;9.85;;
33491;SDS011;20010;51.488;7.232;2022-12-18T00:13:34;11.10;;;10.00;;
33491;SDS011;20010;51.488;7.232;2022-12-18T00:16:03;11.32;;;10.20;;
33491;SDS011;20010;51.488;7.232;2022-12-18T00:18:32;12.32;;;10.70;;
33491;SDS011;20010;51.488;7.232;2022-12-18T00:20:59;11.93;;;10.55;;
33491;SDS011;20010;51.488;7.232;2022-12-18T00:23:27;11.07;;;9.93;;
33491;SDS011;20010;51.488;7.232;2022-12-18T00:25:58;14.55;;;11.63;;
33491;SDS011;20010;51.488;7.232;2022-12-18T00:31:02;9.25;;;8.35;;
33491;SDS011;20010;51.488;7.232;2022-12-18T00:33:31;9.85;;;8.93;;
33491;SDS011;20010;51.488;7.232;2022-12-18T00:36:05;9.98;;;9.00;;
33491;SDS011;20010;51.488;7.232;2022-12-18T00:38:32;9.32;;;8.32;;
33491;SDS011;20010;51.488;7.232;2022-12-18T00:40:59;9.57;;;8.43;;
33491;SDS011;20010;51.488;7.232;2022-12-18T00:43:26;9.23;;;8.15;;
33491;SDS011;20010;51.488;7.232;2022-12-18T00:45:53;9.32;;;8.30;;
33491;SDS011;20010;51.488;7.232;2022-12-18T00:48:21;10.00;;;9.02;;
33491;SDS011;20010;51.488;7.232;2022-12-18T00:50:48;10.75;;;9.02;;
33491;SDS011;20010;51.488;7.232;2022-12-18T00:53:15;9.73;;;8.73;;
33491;SDS011;20010;51.488;7.232;2022-12-18T00:55:43;9.43;;;8.52;;
33491;SDS011;20010;51.488;7.232;2022-12-18T00:58:11;10.50;;;9.38;;
33491;SDS011;20010;51.488;7.232;2022-12-18T01:00:39;9.73;;;8.73;;
33491;SDS011;20010;51.488;7.232;2022-12-18T01:03:07;9.45;;;8.55;;
33491;SDS011;20010;51.488;7.232;2022-12-18T01:05:34;8.95;;;8.05;;
33491;SDS011;20010;51.488;7.232;2022-12-18T01:08:04;9.52;;;8.52;;
33491;SDS011;20010;51.488;7.232;2022-12-18T01:10:31;9.63;;;8.40;;
33491;SDS011;20010;51.488;7.232;2022-12-18T01:12:58;9.50;;;8.55;;
33491;SDS011;20010;51.488;7.232;2022-12-18T01:15:24;8.88;;;8.05;;
33491;SDS011;20010;51.488;7.232;2022-12-18T01:17:52;9.18;;;8.32;;
33491;SDS011;20010;51.488;7.232;2022-12-18T01:20:19;8.68;;;7.85;;
33491;SDS011;20010;51.488;7.232;2022-12-18T01:22:46;8.98;;;8.10;;
33491;SDS011;20010;51.488;7.232;2022-12-18T01:25:13;9.95;;;8.98;;
33491;SDS011;20010;51.488;7.232;2022-12-18T01:27:39;10.05;;;8.90;;
33491;SDS011;20010;51.488;7.232;2022-12-18T01:30:06;10.35;;;9.32;;
33491;SDS011;20010;51.488;7.232;2022-12-18T01:32:33;10.45;;;9.48;;
33491;SDS011;20010;51.488;7.232;2022-12-18T01:35:00;11.90;;;10.65;;
33491;SDS011;20010;51.488;7.232;2022-12-18T01:37:27;14.10;;;10.80;;
33491;SDS011;20010;51.488;7.232;2022-12-18T01:39:53;13.02;;;10.27;;
33491;SDS011;20010;51.488;7.232;2022-12-18T01:42:20;10.93;;;9.73;;
33491;SDS011;20010;51.488;7.232;2022-12-18T01:47:56;12.77;;;10.50;;
33491;SDS011;20010;51.488;7.232;2022-12-18T01:50:36;14.00;;;10.80;;
33491;SDS011;20010;51.488;7.232;2022-12-18T01:53:13;11.18;;;10.00;;
33491;SDS011;20010;51.488;7.232;2022-12-18T01:55:43;10.68;;;9.68;;
33491;SDS011;20010;51.488;7.232;2022-12-18T01:58:15;11.88;;;10.68;;
33491;SDS011;20010;51.488;7.232;2022-12-18T02:00:43;11.63;;;10.45;;
33491;SDS011;20010;51.488;7.232;2022-12-18T02:03:11;10.43;;;9.35;;
33491;SDS011;20010;51.488;7.232;2022-12-18T02:05:44;12.68;;;10.18;;
33491;SDS011;20010;51.488;7.232;2022-12-18T02:10:51;12.40;;;9.77;;
33491;SDS011;20010;51.488;7.232;2022-12-18T02:16:21;12.70;;;10.65;;
33491;SDS011;20010;51.488;7.232;2022-12-18T02:18:57;12.00;;;9.65;;
33491;SDS011;20010;51.488;7.232;2022-12-18T02:26:50;11.23;;;10.02;;
33491;SDS011;20010;51.488;7.232;2022-12-18T02:29:22;10.90;;;9.60;;
33491;SDS011;20010;51.488;7.232;2022-12-18T02:31:57;10.43;;;9.48;;
33491;SDS011;20010;51.488;7.232;2022-12-18T02:34:29;10.40;;;9.43;;
33491;SDS011;20010;51.488;7.232;2022-12-18T02:37:00;14.15;;;10.57;;
33491;SDS011;20010;51.488;7.232;2022-12-18T02:39:31;10.48;;;9.48;;
33491;SDS011;20010;51.488;7.232;2022-12-18T02:41:59;13.80;;;10.48;;
33491;SDS011;20010;51.488;7.232;2022-12-18T02:44:43;11.30;;;10.15;;
33491;SDS011;20010;51.488;7.232;2022-12-18T02:47:12;10.48;;;9.65;;
33491;SDS011;20010;51.488;7.232;2022-12-18T02:50:02;11.48;;;9.88;;
33491;SDS011;20010;51.488;7.232;2022-12-18T02:55:09;12.35;;;9.70;;
33491;SDS011;20010;51.488;7.232;2022-12-18T02:57:45;9.10;;;8.30;;
33491;SDS011;20010;51.488;7.232;2022-12-18T03:00:28;9.82;;;8.93;;
33491;SDS011;20010;51.488;7.232;2022-12-18T03:02:59;9.68;;;8.68;;
33491;SDS011;20010;51.488;7.232;2022-12-18T03:05:50;9.55;;;8.63;;
33491;SDS011;20010;51.488;7.232;2022-12-18T03:08:30;10.07;;;9.05;;
33491;SDS011;20010;51.488;7.232;2022-12-18T03:11:04;10.60;;;9.27;;
33491;SDS011;20010;51.488;7.232;2022-12-18T03:16:22;8.57;;;7.85;;
33491;SDS011;20010;51.488;7.232;2022-12-18T03:18:54;10.07;;;8.50;;
33491;SDS011;20010;51.488;7.232;2022-12-18T03:21:29;8.57;;;7.78;;
33491;SDS011;20010;51.488;7.232;2022-12-18T03:24:02;9.48;;;8.68;;
33491;SDS011;20010;51.488;7.232;2022-12-18T03:26:34;9.07;;;8.27;;
33491;SDS011;20010;51.488;7.232;2022-12-18T03:29:05;8.70;;;8.02;;
33491;SDS011;20010;51.488;7.232;2022-12-18T03:31:35;10.18;;;9.32;;
33491;SDS011;20010;51.488;7.232;2022-12-18T03:34:09;9.43;;;8.27;;
33491;SDS011;20010;51.488;7.232;2022-12-18T03:36:41;9.98;;;8.18;;
33491;SDS011;20010;51.488;7.232;2022-12-18T03:39:08;9.02;;;8.10;;
33491;SDS011;20010;51.488;7.232;2022-12-18T03:41:42;8.73;;;7.90;;
33491;SDS011;20010;51.488;7.232;2022-12-18T03:52:32;8.23;;;7.50;;
33491;SDS011;20010;51.488;7.232;2022-12-18T03:55:05;9.73;;;8.77;;
33491;SDS011;20010;51.488;7.232;2022-12-18T03:57:33;8.95;;;8.20;;
33491;SDS011;20010;51.488;7.232;2022-12-18T04:00:03;9.10;;;7.88;;
33491;SDS011;20010;51.488;7.232;2022-12-18T04:02:33;9.75;;;8.75;;
33491;SDS011;20010;51.488;7.232;2022-12-18T04:05:01;8.75;;;7.88;;
33491;SDS011;20010;51.488;7.232;2022-12-18T04:07:31;8.90;;;8.10;;
33491;SDS011;20010;51.488;7.232;2022-12-18T04:09:59;9.18;;;8.38;;
33491;SDS011;20010;51.488;7.232;2022-12-18T04:12:29;9.35;;;8.45;;
33491;SDS011;20010;51.488;7.232;2022-12-18T04:14:56;8.50;;;7.70;;
33491;SDS011;20010;51.488;7.232;2022-12-18T04:17:23;8.77;;;8.02;;
33491;SDS011;20010;51.488;7.232;2022-12-18T04:19:50;8.35;;;7.65;;
33491;SDS011;20010;51.488;7.232;2022-12-18T04:22:18;8.45;;;7.80;;
33491;SDS011;20010;51.488;7.232;2022-12-18T04:24:45;8.23;;;7.40;;
33491;SDS011;20010;51.488;7.232;2022-12-18T04:27:12;9.43;;;8.50;;
33491;SDS011;20010;51.488;7.232;2022-12-18T04:29:39;8.45;;;7.85;;
33491;SDS011;20010;51.488;7.232;2022-12-18T04:32:06;8.60;;;7.88;;
33491;SDS011;20010;51.488;7.232;2022-12-18T04:34:33;8.27;;;7.57;;
33491;SDS011;20010;51.488;7.232;2022-12-18T04:37:00;7.72;;;7.13;;
33491;SDS011;20010;51.488;7.232;2022-12-18T04:39:27;7.93;;;7.32;;
33491;SDS011;20010;51.488;7.232;2022-12-18T04:41:54;8.45;;;7.75;;
33491;SDS011;20010;51.488;7.232;2022-12-18T04:44:21;8.00;;;7.30;;
33491;SDS011;20010;51.488;7.232;2022-12-18T04:46:48;7.65;;;7.10;;
33491;SDS011;20010;51.488;7.232;2022-12-18T04:49:15;8.45;;;7.65;;
33491;SDS011;20010;51.488;7.232;2022-12-18T04:51:42;9.13;;;8.40;;
33491;SDS011;20010;51.488;7.232;2022-12-18T04:54:09;8.70;;;8.00;;
33491;SDS011;20010;51.488;7.232;2022-12-18T04:56:35;8.18;;;7.47;;
33491;SDS011;20010;51.488;7.232;2022-12-18T04:59:02;8.15;;;7.50;;
33491;SDS011;20010;51.488;7.232;2022-12-18T05:01:29;8.32;;;7.63;;
33491;SDS011;20010;51.488;7.232;2022-12-18T05:06:27;9.38;;;7.97;;
33491;SDS011;20010;51.488;7.232;2022-12-18T05:08:55;10.00;;;8.88;;
33491;SDS011;20010;51.488;7.232;2022-12-18T05:11:21;9.15;;;8.25;;
33491;SDS011;20010;51.488;7.232;2022-12-18T05:13:48;10.60;;;9.55;;
33491;SDS011;20010;51.488;7.232;2022-12-18T05:16:15;11.18;;;9.20;;
33491;SDS011;20010;51.488;7.232;2022-12-18T05:18:42;10.02;;;8.73;;
33491;SDS011;20010;51.488;7.232;2022-12-18T05:21:09;10.65;;;9.55;;
33491;SDS011;20010;51.488;7.232;2022-12-18T05:23:36;10.55;;;9.55;;
33491;SDS011;20010;51.488;7.232;2022-12-18T05:26:04;10.10;;;9.07;;
33491;SDS011;20010;51.488;7.232;2022-12-18T05:28:33;11.50;;;10.35;;
33491;SDS011;20010;51.488;7.232;2022-12-18T05:31:01;10.90;;;9.80;;
33491;SDS011;20010;51.488;7.232;2022-12-18T05:33:30;10.80;;;9.70;;
33491;SDS011;20010;51.488;7.232;2022-12-18T05:35:59;11.77;;;10.52;;
33491;SDS011;20010;51.488;7.232;2022-12-18T05:38:29;10.15;;;9.25;;
33491;SDS011;20010;51.488;7.232;2022-12-18T05:40:57;11.50;;;10.38;;
33491;SDS011;20010;51.488;7.232;2022-12-18T05:43:24;11.68;;;9.80;;
33491;SDS011;20010;51.488;7.232;2022-12-18T05:45:52;12.38;;;11.07;;
33491;SDS011;20010;51.488;7.232;2022-12-18T05:48:19;19.05;;;13.82;;
33491;SDS011;20010;51.488;7.232;2022-12-18T05:50:47;11.98;;;10.80;;
33491;SDS011;20010;51.488;7.232;2022-12-18T05:53:15;9.07;;;8.27;;
33491;SDS011;20010;51.488;7.232;2022-12-18T05:55:43;9.15;;;8.35;;
33491;SDS011;20010;51.488;7.232;2022-12-18T05:58:11;8.80;;;8.02;;
33491;SDS011;20010;51.488;7.232;2022-12-18T06:00:39;8.48;;;7.88;;
33491;SDS011;20010;51.488;7.232;2022-12-18T06:03:08;10.10;;;8.68;;
33491;SDS011;20010;51.488;7.232;2022-12-18T06:05:37;9.00;;;8.10;;
33491;SDS011;20010;51.488;7.232;2022-12-18T06:08:08;8.43;;;7.65;;
33491;SDS011;20010;51.488;7.232;2022-12-18T06:10:35;8.52;;;7.80;;
33491;SDS011;20010;51.488;7.232;2022-12-18T06:13:02;8.90;;;7.93;;
33491;SDS011;20010;51.488;7.232;2022-12-18T06:15:30;9.80;;;8.88;;
33491;SDS011;20010;51.488;7.232;2022-12-18T06:17:56;9.27;;;8.30;;
33491;SDS011;20010;51.488;7.232;2022-12-18T06:20:24;9.63;;;8.52;;
33491;SDS011;20010;51.488;7.232;2022-12-18T06:22:58;10.93;;;8.20;;
33491;SDS011;20010;51.488;7.232;2022-12-18T06:25:25;8.55;;;7.85;;
33491;SDS011;20010;51.488;7.232;2022-12-18T06:27:52;9.55;;;8.68;;
33491;SDS011;20010;51.488;7.232;2022-12-18T06:30:19;9.32;;;8.43;;
33491;SDS011;20010;51.488;7.232;2022-12-18T06:32:46;10.38;;;9.05;;
33491;SDS011;20010;51.488;7.232;2022-12-18T06:35:21;9.45;;;8.63;;
33491;SDS011;20010;51.488;7.232;2022-12-18T06:37:48;11.07;;;9.98;;
33491;SDS011;20010;51.488;7.232;2022-12-18T06:40:15;10.38;;;9.38;;
33491;SDS011;20010;51.488;7.232;2022-12-18T06:42:43;10.32;;;9.38;;
33491;SDS011;20010;51.488;7.232;2022-12-18T06:45:10;10.50;;;9.55;;
33491;SDS011;20010;51.488;7.232;2022-12-18T06:47:37;13.90;;;11.60;;
33491;SDS011;20010;51.488;7.232;2022-12-18T06:50:04;13.35;;;12.05;;
33491;SDS011;20010;51.488;7.232;2022-12-18T06:52:31;11.30;;;10.20;;
33491;SDS011;20010;51.488;7.232;2022-12-18T06:54:59;10.05;;;9.10;;
33491;SDS011;20010;51.488;7.232;2022-12-18T06:57:26;9.52;;;8.63;;
33491;SDS011;20010;51.488;7.232;2022-12-18T06:59:53;9.18;;;8.27;;
33491;SDS011;20010;51.488;7.232;2022-12-18T07:02:20;8.32;;;7.55;;
33491;SDS011;20010;51.488;7.232;2022-12-18T07:04:47;9.90;;;9.00;;
33491;SDS011;20010;51.488;7.232;2022-12-18T07:07:16;8.68;;;7.90;;
33491;SDS011;20010;51.488;7.232;2022-12-18T07:09:43;9.05;;;8.20;;
33491;SDS011;20010;51.488;7.232;2022-12-18T07:12:10;8.73;;;7.93;;
33491;SDS011;20010;51.488;7.232;2022-12-18T07:14:36;8.93;;;8.02;;
33491;SDS011;20010;51.488;7.232;2022-12-18T07:17:03;9.50;;;8.60;;
33491;SDS011;20010;51.488;7.232;2022-12-18T07:19:31;11.13;;;9.70;;
33491;SDS011;20010;51.488;7.232;2022-12-18T07:21:58;20.73;;;14.27;;
33491;SDS011;20010;51.488;7.232;2022-12-18T07:24:25;12.48;;;10.95;;
33491;SDS011;20010;51.488;7.232;2022-12-18T07:26:52;10.63;;;9.45;;
33491;SDS011;20010;51.488;7.232;2022-12-18T07:29:19;9.90;;;8.90;;
33491;SDS011;20010;51.488;7.232;2022-12-18T07:31:45;10.00;;;9.10;;
33491;SDS011;20010;51.488;7.232;2022-12-18T07:34:12;10.98;;;9.98;;
33491;SDS011;20010;51.488;7.232;2022-12-18T07:36:41;11.07;;;10.07;;
33491;SDS011;20010;51.488;7.232;2022-12-18T07:39:08;11.10;;;9.55;;
33491;SDS011;20010;51.488;7.232;2022-12-18T07:41:36;15.20;;;13.38;;
33491;SDS011;20010;51.488;7.232;2022-12-18T07:44:10;13.88;;;10.82;;
33491;SDS011;20010;51.488;7.232;2022-12-18T07:46:37;10.10;;;9.10;;
33491;SDS011;20010;51.488;7.232;2022-12-18T07:49:04;10.93;;;9.35;;
33491;SDS011;20010;51.488;7.232;2022-12-18T07:51:31;10.63;;;9.45;;
33491;SDS011;20010;51.488;7.232;2022-12-18T07:53:58;9.85;;;8.85;;
33491;SDS011;20010;51.488;7.232;2022-12-18T07:56:24;10.15;;;9.07;;
33491;SDS011;20010;51.488;7.232;2022-12-18T07:58:54;9.50;;;8.50;;
33491;SDS011;20010;51.488;7.232;2022-12-18T08:01:21;8.50;;;7.70;;
33491;SDS011;20010;51.488;7.232;2022-12-18T08:03:48;9.25;;;8.45;;
33491;SDS011;20010;51.488;7.232;2022-12-18T08:06:17;9.20;;;8.35;;
33491;SDS011;20010;51.488;7.232;2022-12-18T08:08:44;9.68;;;8.73;;
33491;SDS011;20010;51.488;7.232;2022-12-18T08:11:10;8.95;;;7.97;;
33491;SDS011;20010;51.488;7.232;2022-12-18T08:13:37;10.45;;;8.40;;
33491;SDS011;20010;51.488;7.232;2022-12-18T08:16:05;10.07;;;7.97;;
33491;SDS011;20010;51.488;7.232;2022-12-18T08:18:33;8.15;;;7.47;;
33491;SDS011;20010;51.488;7.232;2022-12-18T08:21:11;8.32;;;7.55;;
33491;SDS011;20010;51.488;7.232;2022-12-18T08:23:41;11.43;;;8.85;;
33491;SDS011;20010;51.488;7.232;2022-12-18T08:26:12;9.68;;;8.57;;
33491;SDS011;20010;51.488;7.232;2022-12-18T08:28:39;7.93;;;7.22;;
33491;SDS011;20010;51.488;7.232;2022-12-18T08:31:07;9.38;;;8.48;;
33491;SDS011;20010;51.488;7.232;2022-12-18T08:33:35;10.15;;;9.07;;
33491;SDS011;20010;51.488;7.232;2022-12-18T08:36:04;9.48;;;8.55;;
33491;SDS011;20010;51.488;7.232;2022-12-18T08:38:32;9.55;;;8.75;;
33491;SDS011;20010;51.488;7.232;2022-12-18T08:43:27;9.25;;;8.23;;
33491;SDS011;20010;51.488;7.232;2022-12-18T08:46:12;11.70;;;9.82;;
33491;SDS011;20010;51.488;7.232;2022-12-18T08:48:43;8.60;;;7.90;;
33491;SDS011;20010;51.488;7.232;2022-12-18T08:51:10;9.05;;;8.25;;
33491;SDS011;20010;51.488;7.232;2022-12-18T08:53:37;9.90;;;9.10;;
33491;SDS011;20010;51.488;7.232;2022-12-18T08:56:04;9.10;;;8.30;;
33491;SDS011;20010;51.488;7.232;2022-12-18T08:58:31;15.18;;;11.48;;
33491;SDS011;20010;51.488;7.232;2022-12-18T09:01:05;11.32;;;9.38;;
33491;SDS011;20010;51.488;7.232;2022-12-18T09:03:35;9.65;;;8.65;;
33491;SDS011;20010;51.488;7.232;2022-12-18T09:06:03;9.75;;;8.75;;
33491;SDS011;20010;51.488;7.232;2022-12-18T09:08:30;9.80;;;8.93;;
33491;SDS011;20010;51.488;7.232;2022-12-18T09:10:57;9.05;;;8.20;;
33491;SDS011;20010;51.488;7.232;2022-12-18T09:13:24;9.38;;;8.50;;
33491;SDS011;20010;51.488;7.232;2022-12-18T09:15:51;9.30;;;8.50;;
33491;SDS011;20010;51.488;7.232;2022-12-18T09:18:20;9.70;;;8.85;;
33491;SDS011;20010;51.488;7.232;2022-12-18T09:20:49;9.50;;;8.50;;
33491;SDS011;20010;51.488;7.232;2022-12-18T09:23:19;9.65;;;8.82;;
33491;SDS011;20010;51.488;7.232;2022-12-18T09:25:47;10.32;;;9.20;;
33491;SDS011;20010;51.488;7.232;2022-12-18T09:28:16;10.85;;;9.85;;
33491;SDS011;20010;51.488;7.232;2022-12-18T09:30:47;9.15;;;8.35;;
33491;SDS011;20010;51.488;7.232;2022-12-18T09:33:16;10.07;;;9.18;;
33491;SDS011;20010;51.488;7.232;2022-12-18T09:35:43;10.07;;;9.07;;
33491;SDS011;20010;51.488;7.232;2022-12-18T09:38:12;9.75;;;8.85;;
33491;SDS011;20010;51.488;7.232;2022-12-18T09:40:51;11.85;;;9.48;;
33491;SDS011;20010;51.488;7.232;2022-12-18T09:43:22;11.98;;;8.55;;
33491;SDS011;20010;51.488;7.232;2022-12-18T09:45:55;8.93;;;8.20;;
33491;SDS011;20010;51.488;7.232;2022-12-18T09:48:31;8.90;;;8.02;;
33491;SDS011;20010;51.488;7.232;2022-12-18T09:51:02;9.65;;;8.75;;
33491;SDS011;20010;51.488;7.232;2022-12-18T09:53:37;8.35;;;7.53;;
33491;SDS011;20010;51.488;7.232;2022-12-18T09:56:09;8.18;;;7.47;;
33491;SDS011;20010;51.488;7.232;2022-12-18T09:58:45;8.77;;;8.07;;
33491;SDS011;20010;51.488;7.232;2022-12-18T10:01:18;8.65;;;8.00;;
33491;SDS011;20010;51.488;7.232;2022-12-18T10:03:47;8.70;;;8.00;;
33491;SDS011;20010;51.488;7.232;2022-12-18T10:08:57;7.97;;;7.33;;
33491;SDS011;20010;51.488;7.232;2022-12-18T10:11:43;8.70;;;8.05;;
33491;SDS011;20010;51.488;7.232;2022-12-18T10:17:06;8.55;;;7.85;;
33491;SDS011;20010;51.488;7.232;2022-12-18T10:22:16;7.85;;;7.15;;
33491;SDS011;20010;51.488;7.232;2022-12-18T10:27:57;7.47;;;6.95;;
33491;SDS011;20010;51.488;7.232;2022-12-18T10:30:26;8.02;;;7.53;;
33491;SDS011;20010;51.488;7.232;2022-12-18T10:32:53;7.70;;;7.10;;
33491;SDS011;20010;51.488;7.232;2022-12-18T10:35:23;8.40;;;7.80;;
33491;SDS011;20010;51.488;7.232;2022-12-18T10:38:02;7.90;;;7.30;;
33491;SDS011;20010;51.488;7.232;2022-12-18T10:40:29;6.97;;;6.50;;
33491;SDS011;20010;51.488;7.232;2022-12-18T10:46:00;8.60;;;8.00;;
33491;SDS011;20010;51.488;7.232;2022-12-18T10:48:34;10.02;;;8.90;;
33491;SDS011;20010;51.488;7.232;2022-12-18T10:51:09;8.88;;;8.07;;
33491;SDS011;20010;51.488;7.232;2022-12-18T10:53:39;7.40;;;6.95;;
33491;SDS011;20010;51.488;7.232;2022-12-18T10:56:08;7.88;;;7.18;;
33491;SDS011;20010;51.488;7.232;2022-12-18T10:58:36;7.78;;;7.07;;
33491;SDS011;20010;51.488;7.232;2022-12-18T11:01:10;7.03;;;6.55;;
33491;SDS011;20010;51.488;7.232;2022-12-18T11:06:27;7.72;;;7.18;;
33491;SDS011;20010;51.488;7.232;2022-12-18T11:08:58;7.22;;;6.63;;
33491;SDS011;20010;51.488;7.232;2022-12-18T11:11:37;7.88;;;7.20;;
33491;SDS011;20010;51.488;7.232;2022-12-18T11:14:05;8.00;;;7.40;;
33491;SDS011;20010;51.488;7.232;2022-12-18T11:16:48;7.43;;;6.82;;
33491;SDS011;20010;51.488;7.232;2022-12-18T11:19:39;8.73;;;7.30;;
33491;SDS011;20010;51.488;7.232;2022-12-18T11:22:20;8.00;;;7.43;;
33491;SDS011;20010;51.488;7.232;2022-12-18T11:24:53;8.32;;;7.63;;
33491;SDS011;20010;51.488;7.232;2022-12-18T11:27:51;8.00;;;7.28;;
33491;SDS011;20010;51.488;7.232;2022-12-18T11:32:49;9.27;;;8.13;;
33491;SDS011;20010;51.488;7.232;2022-12-18T11:38:17;9.15;;;8.38;;
33491;SDS011;20010;51.488;7.232;2022-12-18T11:40:46;7.80;;;7.20;;
33491;SDS011;20010;51.488;7.232;2022-12-18T11:43:20;7.38;;;6.78;;
33491;SDS011;20010;51.488;7.232;2022-12-18T11:46:05;9.20;;;8.45;;
33491;SDS011;20010;51.488;7.232;2022-12-18T11:49:03;7.55;;;6.82;;
33491;SDS011;20010;51.488;7.232;2022-12-18T11:51:38;8.18;;;7.43;;
33491;SDS011;20010;51.488;7.232;2022-12-18T11:54:14;14.13;;;10.75;;
33491;SDS011;20010;51.488;7.232;2022-12-18T11:56:44;9.65;;;8.75;;
33491;SDS011;20010;51.488;7.232;2022-12-18T12:02:11;7.47;;;6.97;;
33491;SDS011;20010;51.488;7.232;2022-12-18T12:07:42;8.35;;;7.65;;
33491;SDS011;20010;51.488;7.232;2022-12-18T12:15:59;10.77;;;8.05;;
33491;SDS011;20010;51.488;7.232;2022-12-18T12:21:41;9.60;;;8.60;;
33491;SDS011;20010;51.488;7.232;2022-12-18T12:40:04;9.30;;;7.97;;
33491;SDS011;20010;51.488;7.232;2022-12-18T12:42:52;9.38;;;8.57;;
33491;SDS011;20010;51.488;7.232;2022-12-18T12:51:21;9.38;;;8.57;;
33491;SDS011;20010;51.488;7.232;2022-12-18T12:53:54;8.82;;;8.13;;
33491;SDS011;20010;51.488;7.232;2022-12-18T12:56:24;9.13;;;8.30;;
33491;SDS011;20010;51.488;7.232;2022-12-18T13:15:38;8.95;;;8.25;;
33491;SDS011;20010;51.488;7.232;2022-12-18T13:20:44;9.25;;;8.40;;
33491;SDS011;20010;51.488;7.232;2022-12-18T13:25:54;10.52;;;9.52;;
33491;SDS011;20010;51.488;7.232;2022-12-18T13:31:14;10.93;;;9.75;;
33491;SDS011;20010;51.488;7.232;2022-12-18T13:34:16;9.55;;;8.77;;
33491;SDS011;20010;51.488;7.232;2022-12-18T13:36:53;10.57;;;9.60;;
33491;SDS011;20010;51.488;7.232;2022-12-18T13:39:40;10.80;;;9.70;;
33491;SDS011;20010;51.488;7.232;2022-12-18T13:44:35;11.65;;;10.55;;
33491;SDS011;20010;51.488;7.232;2022-12-18T13:47:26;11.77;;;10.63;;
33491;SDS011;20010;51.488;7.232;2022-12-18T13:50:00;11.70;;;10.55;;
33491;SDS011;20010;51.488;7.232;2022-12-18T13:52:36;10.95;;;9.93;;
33491;SDS011;20010;51.488;7.232;2022-12-18T13:55:06;11.50;;;10.50;;
33491;SDS011;20010;51.488;7.232;2022-12-18T13:57:41;14.82;;;11.85;;
33491;SDS011;20010;51.488;7.232;2022-12-18T14:00:28;12.32;;;10.52;;
33491;SDS011;20010;51.488;7.232;2022-12-18T14:02:56;13.60;;;10.30;;
33491;SDS011;20010;51.488;7.232;2022-12-18T14:07:52;12.98;;;10.73;;
33491;SDS011;20010;51.488;7.232;2022-12-18T14:10:20;11.50;;;10.50;;
33491;SDS011;20010;51.488;7.232;2022-12-18T14:13:08;12.70;;;11.50;;
33491;SDS011;20010;51.488;7.232;2022-12-18T14:15:44;12.77;;;11.57;;
33491;SDS011;20010;51.488;7.232;2022-12-18T14:18:23;16.17;;;12.73;;
33491;SDS011;20010;51.488;7.232;2022-12-18T14:20:52;17.63;;;11.68;;
33491;SDS011;20010;51.488;7.232;2022-12-18T14:25:58;12.85;;;11.55;;
33491;SDS011;20010;51.488;7.232;2022-12-18T14:28:31;12.02;;;10.82;;
33491;SDS011;20010;51.488;7.232;2022-12-18T14:30:58;14.93;;;11.20;;
33491;SDS011;20010;51.488;7.232;2022-12-18T14:33:25;16.23;;;11.52;;
33491;SDS011;20010;51.488;7.232;2022-12-18T14:36:04;13.55;;;12.13;;
33491;SDS011;20010;51.488;7.232;2022-12-18T14:38:35;15.90;;;12.20;;
33491;SDS011;20010;51.488;7.232;2022-12-18T14:43:36;12.88;;;11.48;;
33491;SDS011;20010;51.488;7.232;2022-12-18T14:46:06;11.57;;;10.47;;
33491;SDS011;20010;51.488;7.232;2022-12-18T14:49:17;12.88;;;11.68;;
33491;SDS011;20010;51.488;7.232;2022-12-18T14:51:48;13.00;;;11.75;;
33491;SDS011;20010;51.488;7.232;2022-12-18T14:54:23;13.55;;;12.15;;
33491;SDS011;20010;51.488;7.232;2022-12-18T14:57:05;13.93;;;12.52;;
33491;SDS011;20010;51.488;7.232;2022-12-18T14:59:45;12.88;;;11.38;;
33491;SDS011;20010;51.488;7.232;2022-12-18T15:02:21;14.55;;;12.13;;
33491;SDS011;20010;51.488;7.232;2022-12-18T15:07:43;14.38;;;12.82;;
33491;SDS011;20010;51.488;7.232;2022-12-18T15:10:12;13.50;;;12.30;;
33491;SDS011;20010;51.488;7.232;2022-12-18T15:20:45;16.63;;;13.70;;
33491;SDS011;20010;51.488;7.232;2022-12-18T15:26:10;15.27;;;13.38;;
33491;SDS011;20010;51.488;7.232;2022-12-18T15:28:39;14.38;;;13.07;;
33491;SDS011;20010;51.488;7.232;2022-12-18T15:31:21;18.35;;;14.05;;
33491;SDS011;20010;51.488;7.232;2022-12-18T15:36:18;16.50;;;14.50;;
33491;SDS011;20010;51.488;7.232;2022-12-18T15:38:52;15.52;;;13.68;;
33491;SDS011;20010;51.488;7.232;2022-12-18T15:41:28;18.65;;;13.75;;
33491;SDS011;20010;51.488;7.232;2022-12-18T15:43:58;15.10;;;12.77;;
33491;SDS011;20010;51.488;7.232;2022-12-18T15:46:25;15.48;;;13.68;;
33491;SDS011;20010;51.488;7.232;2022-12-18T15:48:53;13.48;;;12.25;;
33491;SDS011;20010;51.488;7.232;2022-12-18T15:51:28;18.48;;;15.93;;
33491;SDS011;20010;51.488;7.232;2022-12-18T15:53:58;16.10;;;14.38;;
33491;SDS011;20010;51.488;7.232;2022-12-18T15:56:27;23.73;;;16.67;;
33491;SDS011;20010;51.488;7.232;2022-12-18T15:59:14;15.38;;;13.27;;
33491;SDS011;20010;51.488;7.232;2022-12-18T16:01:43;18.67;;;14.20;;
33491;SDS011;20010;51.488;7.232;2022-12-18T16:04:12;16.00;;;14.20;;
33491;SDS011;20010;51.488;7.232;2022-12-18T16:06:41;22.60;;;16.55;;
33491;SDS011;20010;51.488;7.232;2022-12-18T16:09:28;17.42;;;14.68;;
33491;SDS011;20010;51.488;7.232;2022-12-18T16:11:55;18.23;;;14.45;;
33491;SDS011;20010;51.488;7.232;2022-12-18T16:16:53;17.52;;;15.55;;
33491;SDS011;20010;51.488;7.232;2022-12-18T16:19:22;19.13;;;16.27;;
33491;SDS011;20010;51.488;7.232;2022-12-18T16:21:50;15.98;;;14.48;;
33491;SDS011;20010;51.488;7.232;2022-12-18T16:24:19;22.00;;;15.25;;
33491;SDS011;20010;51.488;7.232;2022-12-18T16:26:50;19.38;;;16.02;;
33491;SDS011;20010;51.488;7.232;2022-12-18T16:29:18;21.38;;;16.70;;
33491;SDS011;20010;51.488;7.232;2022-12-18T16:31:50;17.25;;;14.98;;
33491;SDS011;20010;51.488;7.232;2022-12-18T16:37:02;18.70;;;14.68;;
33491;SDS011;20010;51.488;7.232;2022-12-18T16:39:35;22.08;;;16.10;;
33491;SDS011;20010;51.488;7.232;2022-12-18T16:42:03;20.88;;;15.50;;
33491;SDS011;20010;51.488;7.232;2022-12-18T16:44:34;24.00;;;17.45;;
33491;SDS011;20010;51.488;7.232;2022-12-18T16:47:02;19.60;;;16.67;;
33491;SDS011;20010;51.488;7.232;2022-12-18T16:49:30;21.75;;;15.98;;
33491;SDS011;20010;51.488;7.232;2022-12-18T16:51:57;21.63;;;16.50;;
33491;SDS011;20010;51.488;7.232;2022-12-18T16:54:23;23.58;;;16.10;;
33491;SDS011;20010;51.488;7.232;2022-12-18T16:56:50;21.67;;;16.63;;
33491;SDS011;20010;51.488;7.232;2022-12-18T16:59:17;21.08;;;16.98;;
33491;SDS011;20010;51.488;7.232;2022-12-18T17:01:45;22.10;;;17.90;;
33491;SDS011;20010;51.488;7.232;2022-12-18T17:04:12;23.95;;;18.20;;
33491;SDS011;20010;51.488;7.232;2022-12-18T17:06:44;22.95;;;17.02;;
33491;SDS011;20010;51.488;7.232;2022-12-18T17:09:12;18.08;;;15.65;;
33491;SDS011;20010;51.488;7.232;2022-12-18T17:11:42;22.20;;;17.48;;
33491;SDS011;20010;51.488;7.232;2022-12-18T17:14:14;21.75;;;17.45;;
33491;SDS011;20010;51.488;7.232;2022-12-18T17:16:42;22.33;;;18.02;;
33491;SDS011;20010;51.488;7.232;2022-12-18T17:19:09;19.38;;;16.73;;
33491;SDS011;20010;51.488;7.232;2022-12-18T17:21:42;25.05;;;18.15;;
33491;SDS011;20010;51.488;7.232;2022-12-18T17:24:10;21.90;;;16.83;;
33491;SDS011;20010;51.488;7.232;2022-12-18T17:26:37;23.30;;;18.27;;